sensor_id;sensor_type;location;lat;lon;timestamp;temperature;humidity
18173;DHT22;9211;48.818;9.312;2023-02-13T00:01:13;2.10;99.90
18173;DHT22;9211;48.818;9.312;2023-02-13T00:03:40;2.10;99.90
18173;DHT22;9211;48.818;9.312;2023-02-13T00:06:08;2.10;99.90
18173;DHT22;9211;48.818;9.312;2023-02-13T00:08:35;2.00;99.90
18173;DHT22;9211;48.818;9.312;2023-02-13T00:11:02;1.90;99.90
18173;DHT22;9211;48.818;9.312;2023-02-13T00:13:29;1.90;99.90
18173;DHT22;9211;48.818;9.312;2023-02-13T00:15:57;1.90;99.90
18173;DHT22;9211;48.818;9.312;2023-02-13T00:18:24;1.80;99.90
18173;DHT22;9211;48.818;9.312;2023-02-13T00:20:59;1.80;99.90
18173;DHT22;9211;48.818;9.312;2023-02-13T00:23:28;1.70;99.90
18173;DHT22;9211;48.818;9.312;2023-02-13T00:25:55;1.60;99.90
18173;DHT22;9211;48.818;9.312;2023-02-13T00:28:23;1.60;99.90
18173;DHT22;9211;48.818;9.312;2023-02-13T00:30:50;1.70;99.90
18173;DHT22;9211;48.818;9.312;2023-02-13T00:33:17;1.70;99.90
18173;DHT22;9211;48.818;9.312;2023-02-13T00:35:44;1.80;99.90
18173;DHT22;9211;48.818;9.312;2023-02-13T00:38:11;1.70;99.90
18173;DHT22;9211;48.818;9.312;2023-02-13T00:40:40;1.60;99.90
18173;DHT22;9211;48.818;9.312;2023-02-13T00:43:06;1.60;99.90
18173;DHT22;9211;48.818;9.312;2023-02-13T00:45:34;1.60;99.90
18173;DHT22;9211;48.818;9.312;2023-02-13T00:48:01;1.60;99.90
18173;DHT22;9211;48.818;9.312;2023-02-13T00:50:28;1.60;99.90
18173;DHT22;9211;48.818;9.312;2023-02-13T00:52:56;1.50;99.90
18173;DHT22;9211;48.818;9.312;2023-02-13T00:55:23;1.60;99.90
18173;DHT22;9211;48.818;9.312;2023-02-13T00:57:51;1.50;99.90
18173;DHT22;9211;48.818;9.312;2023-02-13T01:00:19;1.50;99.90
18173;DHT22;9211;48.818;9.312;2023-02-13T01:02:46;1.50;99.90
18173;DHT22;9211;48.818;9.312;2023-02-13T01:05:14;1.50;99.90
18173;DHT22;9211;48.818;9.312;2023-02-13T01:07:41;1.50;99.90
18173;DHT22;9211;48.818;9.312;2023-02-13T01:10:08;1.40;99.90
18173;DHT22;9211;48.818;9.312;2023-02-13T01:12:35;1.40;99.90
18173;DHT22;9211;48.818;9.312;2023-02-13T01:15:04;1.40;99.90
18173;DHT22;9211;48.818;9.312;2023-02-13T01:17:31;1.40;99.90
18173;DHT22;9211;48.818;9.312;2023-02-13T01:19:58;1.40;99.90
18173;DHT22;9211;48.818;9.312;2023-02-13T01:22:25;1.40;99.90
18173;DHT22;9211;48.818;9.312;2023-02-13T01:24:52;1.30;99.90
18173;DHT22;9211;48.818;9.312;2023-02-13T01:27:19;1.30;99.90
18173;DHT22;9211;48.818;9.312;2023-02-13T01:29:46;1.30;99.90
18173;DHT22;9211;48.818;9.312;2023-02-13T01:32:14;1.30;99.90
18173;DHT22;9211;48.818;9.312;2023-02-13T01:34:41;1.20;99.90
18173;DHT22;9211;48.818;9.312;2023-02-13T01:37:10;1.30;99.90
18173;DHT22;9211;48.818;9.312;2023-02-13T01:39:37;1.10;99.90
18173;DHT22;9211;48.818;9.312;2023-02-13T01:42:04;1.10;99.90
18173;DHT22;9211;48.818;9.312;2023-02-13T01:44:52;1.10;99.90
18173;DHT22;9211;48.818;9.312;2023-02-13T01:47:24;1.00;99.90
18173;DHT22;9211;48.818;9.312;2023-02-13T01:49:59;1.10;99.90
18173;DHT22;9211;48.818;9.312;2023-02-13T01:52:29;1.20;99.90
18173;DHT22;9211;48.818;9.312;2023-02-13T01:54:56;1.10;99.90
18173;DHT22;9211;48.818;9.312;2023-02-13T01:57:25;1.00;99.90
18173;DHT22;9211;48.818;9.312;2023-02-13T01:59:57;0.90;99.90
18173;DHT22;9211;48.818;9.312;2023-02-13T02:02:30;0.80;99.90
18173;DHT22;9211;48.818;9.312;2023-02-13T02:05:00;0.80;99.90
18173;DHT22;9211;48.818;9.312;2023-02-13T02:07:29;0.80;99.90
18173;DHT22;9211;48.818;9.312;2023-02-13T02:10:05;0.80;99.90
18173;DHT22;9211;48.818;9.312;2023-02-13T02:12:36;0.80;99.90
18173;DHT22;9211;48.818;9.312;2023-02-13T02:15:07;0.80;99.90
18173;DHT22;9211;48.818;9.312;2023-02-13T02:17:35;0.80;99.90
18173;DHT22;9211;48.818;9.312;2023-02-13T02:20:14;0.90;99.90
18173;DHT22;9211;48.818;9.312;2023-02-13T02:23:15;0.80;99.90
18173;DHT22;9211;48.818;9.312;2023-02-13T02:26:40;0.80;99.90
18173;DHT22;9211;48.818;9.312;2023-02-13T02:29:30;0.80;99.90
18173;DHT22;9211;48.818;9.312;2023-02-13T02:32:25;0.80;99.90
18173;DHT22;9211;48.818;9.312;2023-02-13T02:35:01;0.80;99.90
18173;DHT22;9211;48.818;9.312;2023-02-13T02:37:46;0.70;99.90
18173;DHT22;9211;48.818;9.312;2023-02-13T02:40:24;0.70;99.90
18173;DHT22;9211;48.818;9.312;2023-02-13T02:43:03;0.70;99.90
18173;DHT22;9211;48.818;9.312;2023-02-13T02:45:38;0.60;99.90
18173;DHT22;9211;48.818;9.312;2023-02-13T02:48:19;0.60;99.90
18173;DHT22;9211;48.818;9.312;2023-02-13T02:51:11;0.50;99.90
18173;DHT22;9211;48.818;9.312;2023-02-13T02:53:46;0.70;99.90
18173;DHT22;9211;48.818;9.312;2023-02-13T02:56:21;0.60;99.90
18173;DHT22;9211;48.818;9.312;2023-02-13T02:58:52;0.60;99.90
18173;DHT22;9211;48.818;9.312;2023-02-13T03:01:39;0.60;99.90
18173;DHT22;9211;48.818;9.312;2023-02-13T03:04:31;0.50;99.90
18173;DHT22;9211;48.818;9.312;2023-02-13T03:07:18;0.50;99.90
18173;DHT22;9211;48.818;9.312;2023-02-13T03:09:47;0.50;99.90
18173;DHT22;9211;48.818;9.312;2023-02-13T03:12:37;0.50;99.90
18173;DHT22;9211;48.818;9.312;2023-02-13T03:15:24;0.40;99.90
18173;DHT22;9211;48.818;9.312;2023-02-13T03:17:52;0.40;99.90
18173;DHT22;9211;48.818;9.312;2023-02-13T03:20:44;0.40;99.90
18173;DHT22;9211;48.818;9.312;2023-02-13T03:23:35;0.30;99.90
18173;DHT22;9211;48.818;9.312;2023-02-13T03:26:27;0.30;99.90
18173;DHT22;9211;48.818;9.312;2023-02-13T03:29:13;0.30;99.90
18173;DHT22;9211;48.818;9.312;2023-02-13T03:32:05;0.40;99.90
18173;DHT22;9211;48.818;9.312;2023-02-13T03:34:36;0.40;99.90
18173;DHT22;9211;48.818;9.312;2023-02-13T03:37:24;0.40;99.90
18173;DHT22;9211;48.818;9.312;2023-02-13T03:40:14;0.40;99.90
18173;DHT22;9211;48.818;9.312;2023-02-13T03:42:46;0.30;99.90
18173;DHT22;9211;48.818;9.312;2023-02-13T03:45:19;0.30;99.90
18173;DHT22;9211;48.818;9.312;2023-02-13T03:48:08;0.20;99.90
18173;DHT22;9211;48.818;9.312;2023-02-13T03:50:57;0.20;99.90
18173;DHT22;9211;48.818;9.312;2023-02-13T03:53:26;0.30;99.90
18173;DHT22;9211;48.818;9.312;2023-02-13T03:55:55;0.20;99.90
18173;DHT22;9211;48.818;9.312;2023-02-13T03:58:45;0.20;99.90
18173;DHT22;9211;48.818;9.312;2023-02-13T04:01:31;0.20;99.90
18173;DHT22;9211;48.818;9.312;2023-02-13T04:04:06;0.20;99.90
18173;DHT22;9211;48.818;9.312;2023-02-13T04:06:39;0.20;99.90
18173;DHT22;9211;48.818;9.312;2023-02-13T04:09:09;0.20;99.90
18173;DHT22;9211;48.818;9.312;2023-02-13T04:11:40;0.20;99.90
18173;DHT22;9211;48.818;9.312;2023-02-13T04:14:14;0.10;99.90
18173;DHT22;9211;48.818;9.312;2023-02-13T04:16:44;0.10;99.90
18173;DHT22;9211;48.818;9.312;2023-02-13T04:19:14;0.10;99.90
18173;DHT22;9211;48.818;9.312;2023-02-13T04:21:41;0.10;99.90
18173;DHT22;9211;48.818;9.312;2023-02-13T04:24:10;0.00;99.90
18173;DHT22;9211;48.818;9.312;2023-02-13T04:26:38;0.00;99.90
18173;DHT22;9211;48.818;9.312;2023-02-13T04:29:06;0.10;99.90
18173;DHT22;9211;48.818;9.312;2023-02-13T04:31:33;0.00;99.90
18173;DHT22;9211;48.818;9.312;2023-02-13T04:34:00;0.10;99.90
18173;DHT22;9211;48.818;9.312;2023-02-13T04:36:27;0.10;99.90
18173;DHT22;9211;48.818;9.312;2023-02-13T04:38:54;0.10;99.90
18173;DHT22;9211;48.818;9.312;2023-02-13T04:41:22;0.10;99.90
18173;DHT22;9211;48.818;9.312;2023-02-13T04:43:49;0.10;99.90
18173;DHT22;9211;48.818;9.312;2023-02-13T04:46:17;0.10;99.90
18173;DHT22;9211;48.818;9.312;2023-02-13T04:48:44;0.10;99.90
18173;DHT22;9211;48.818;9.312;2023-02-13T04:51:11;0.20;99.90
18173;DHT22;9211;48.818;9.312;2023-02-13T04:53:38;0.30;99.90
18173;DHT22;9211;48.818;9.312;2023-02-13T04:56:05;0.20;99.90
18173;DHT22;9211;48.818;9.312;2023-02-13T04:58:34;0.10;99.90
18173;DHT22;9211;48.818;9.312;2023-02-13T05:01:01;0.10;99.90
18173;DHT22;9211;48.818;9.312;2023-02-13T05:03:28;0.10;99.90
18173;DHT22;9211;48.818;9.312;2023-02-13T05:05:55;0.00;99.90
18173;DHT22;9211;48.818;9.312;2023-02-13T05:08:21;-0.10;99.90
18173;DHT22;9211;48.818;9.312;2023-02-13T05:10:48;-0.10;99.90
18173;DHT22;9211;48.818;9.312;2023-02-13T05:13:15;-0.20;99.90
18173;DHT22;9211;48.818;9.312;2023-02-13T05:15:48;-0.10;99.90
18173;DHT22;9211;48.818;9.312;2023-02-13T05:18:17;-0.10;99.90
18173;DHT22;9211;48.818;9.312;2023-02-13T05:20:44;-0.20;99.90
18173;DHT22;9211;48.818;9.312;2023-02-13T05:23:31;-0.10;99.90
18173;DHT22;9211;48.818;9.312;2023-02-13T05:25:57;-0.10;99.90
18173;DHT22;9211;48.818;9.312;2023-02-13T05:28:24;0.00;99.90
18173;DHT22;9211;48.818;9.312;2023-02-13T05:31:10;0.00;99.90
18173;DHT22;9211;48.818;9.312;2023-02-13T05:33:37;0.10;99.90
18173;DHT22;9211;48.818;9.312;2023-02-13T05:36:05;0.10;99.90
18173;DHT22;9211;48.818;9.312;2023-02-13T05:38:32;0.00;99.90
18173;DHT22;9211;48.818;9.312;2023-02-13T05:40:59;0.00;99.90
18173;DHT22;9211;48.818;9.312;2023-02-13T05:43:26;-0.10;99.90
18173;DHT22;9211;48.818;9.312;2023-02-13T05:46:00;-0.20;99.90
18173;DHT22;9211;48.818;9.312;2023-02-13T05:48:29;-0.20;99.90
18173;DHT22;9211;48.818;9.312;2023-02-13T05:50:56;-0.20;99.90
18173;DHT22;9211;48.818;9.312;2023-02-13T05:53:23;-0.20;99.90
18173;DHT22;9211;48.818;9.312;2023-02-13T05:55:50;-0.20;99.90
18173;DHT22;9211;48.818;9.312;2023-02-13T05:58:18;-0.20;99.90
18173;DHT22;9211;48.818;9.312;2023-02-13T06:00:45;-0.30;99.90
18173;DHT22;9211;48.818;9.312;2023-02-13T06:03:13;-0.20;99.90
18173;DHT22;9211;48.818;9.312;2023-02-13T06:05:41;-0.20;99.90
18173;DHT22;9211;48.818;9.312;2023-02-13T06:08:08;-0.20;99.90
18173;DHT22;9211;48.818;9.312;2023-02-13T06:10:35;-0.20;99.90
18173;DHT22;9211;48.818;9.312;2023-02-13T06:13:02;-0.20;99.90
18173;DHT22;9211;48.818;9.312;2023-02-13T06:15:29;-0.20;99.90
18173;DHT22;9211;48.818;9.312;2023-02-13T06:17:56;-0.20;99.90
18173;DHT22;9211;48.818;9.312;2023-02-13T06:20:22;-0.20;99.90
18173;DHT22;9211;48.818;9.312;2023-02-13T06:22:51;-0.20;99.90
18173;DHT22;9211;48.818;9.312;2023-02-13T06:25:19;-0.20;99.90
18173;DHT22;9211;48.818;9.312;2023-02-13T06:27:46;-0.20;99.90
18173;DHT22;9211;48.818;9.312;2023-02-13T06:30:14;-0.20;99.90
18173;DHT22;9211;48.818;9.312;2023-02-13T06:32:41;-0.10;99.90
18173;DHT22;9211;48.818;9.312;2023-02-13T06:35:08;-0.10;99.90
18173;DHT22;9211;48.818;9.312;2023-02-13T06:37:35;0.00;99.90
18173;DHT22;9211;48.818;9.312;2023-02-13T06:40:06;0.00;99.90
18173;DHT22;9211;48.818;9.312;2023-02-13T06:42:33;-0.10;99.90
18173;DHT22;9211;48.818;9.312;2023-02-13T06:45:00;-0.20;99.90
18173;DHT22;9211;48.818;9.312;2023-02-13T06:47:28;-0.20;99.90
18173;DHT22;9211;48.818;9.312;2023-02-13T06:49:55;-0.10;99.90
18173;DHT22;9211;48.818;9.312;2023-02-13T06:52:22;-0.10;99.90
18173;DHT22;9211;48.818;9.312;2023-02-13T06:54:49;-0.10;99.90
18173;DHT22;9211;48.818;9.312;2023-02-13T06:57:17;0.00;99.90
18173;DHT22;9211;48.818;9.312;2023-02-13T06:59:44;-0.10;99.90
18173;DHT22;9211;48.818;9.312;2023-02-13T07:02:12;-0.10;99.90
18173;DHT22;9211;48.818;9.312;2023-02-13T07:04:39;-0.10;99.90
18173;DHT22;9211;48.818;9.312;2023-02-13T07:07:06;-0.10;99.90
18173;DHT22;9211;48.818;9.312;2023-02-13T07:09:33;-0.10;99.90
18173;DHT22;9211;48.818;9.312;2023-02-13T07:12:02;0.00;99.90
18173;DHT22;9211;48.818;9.312;2023-02-13T07:14:30;0.00;99.90
18173;DHT22;9211;48.818;9.312;2023-02-13T07:16:58;0.00;99.90
18173;DHT22;9211;48.818;9.312;2023-02-13T07:19:25;0.00;99.90
18173;DHT22;9211;48.818;9.312;2023-02-13T07:21:52;0.00;99.90
18173;DHT22;9211;48.818;9.312;2023-02-13T07:24:18;0.00;99.90
18173;DHT22;9211;48.818;9.312;2023-02-13T07:26:45;0.10;99.90
18173;DHT22;9211;48.818;9.312;2023-02-13T07:29:12;0.20;99.90
18173;DHT22;9211;48.818;9.312;2023-02-13T07:31:41;0.30;99.90
18173;DHT22;9211;48.818;9.312;2023-02-13T07:34:08;0.40;99.90
18173;DHT22;9211;48.818;9.312;2023-02-13T07:36:34;0.40;99.90
18173;DHT22;9211;48.818;9.312;2023-02-13T07:39:01;0.40;99.90
18173;DHT22;9211;48.818;9.312;2023-02-13T07:41:28;0.40;99.90
18173;DHT22;9211;48.818;9.312;2023-02-13T07:43:55;0.40;99.90
18173;DHT22;9211;48.818;9.312;2023-02-13T07:46:22;0.40;99.90
18173;DHT22;9211;48.818;9.312;2023-02-13T07:48:52;0.60;99.90
18173;DHT22;9211;48.818;9.312;2023-02-13T07:51:19;0.50;99.90
18173;DHT22;9211;48.818;9.312;2023-02-13T07:53:49;0.50;99.90
18173;DHT22;9211;48.818;9.312;2023-02-13T07:56:17;0.50;99.90
18173;DHT22;9211;48.818;9.312;2023-02-13T07:58:44;0.50;99.90
18173;DHT22;9211;48.818;9.312;2023-02-13T08:01:13;0.50;99.90
18173;DHT22;9211;48.818;9.312;2023-02-13T08:03:40;0.50;99.90
18173;DHT22;9211;48.818;9.312;2023-02-13T08:06:08;0.50;99.90
18173;DHT22;9211;48.818;9.312;2023-02-13T08:08:35;0.60;99.90
18173;DHT22;9211;48.818;9.312;2023-02-13T08:11:05;0.70;99.90
18173;DHT22;9211;48.818;9.312;2023-02-13T08:14:04;0.70;99.90
18173;DHT22;9211;48.818;9.312;2023-02-13T08:16:31;0.70;99.90
18173;DHT22;9211;48.818;9.312;2023-02-13T08:18:58;0.80;99.90
18173;DHT22;9211;48.818;9.312;2023-02-13T08:21:26;0.80;99.90
18173;DHT22;9211;48.818;9.312;2023-02-13T08:23:53;0.80;99.90
18173;DHT22;9211;48.818;9.312;2023-02-13T08:26:20;0.90;99.90
18173;DHT22;9211;48.818;9.312;2023-02-13T08:28:47;1.00;99.90
18173;DHT22;9211;48.818;9.312;2023-02-13T08:31:14;1.00;99.90
18173;DHT22;9211;48.818;9.312;2023-02-13T08:33:41;1.10;99.90
18173;DHT22;9211;48.818;9.312;2023-02-13T08:36:08;1.10;99.90
18173;DHT22;9211;48.818;9.312;2023-02-13T08:38:37;1.20;99.90
18173;DHT22;9211;48.818;9.312;2023-02-13T08:41:04;1.30;99.90
18173;DHT22;9211;48.818;9.312;2023-02-13T08:43:31;1.40;99.90
18173;DHT22;9211;48.818;9.312;2023-02-13T08:45:58;1.50;99.90
18173;DHT22;9211;48.818;9.312;2023-02-13T08:48:25;1.60;99.90
18173;DHT22;9211;48.818;9.312;2023-02-13T08:50:52;1.70;99.90
18173;DHT22;9211;48.818;9.312;2023-02-13T08:53:19;1.70;99.90
18173;DHT22;9211;48.818;9.312;2023-02-13T08:55:52;1.80;99.90
18173;DHT22;9211;48.818;9.312;2023-02-13T08:58:19;1.90;99.90
18173;DHT22;9211;48.818;9.312;2023-02-13T09:00:46;1.90;99.90
18173;DHT22;9211;48.818;9.312;2023-02-13T09:03:14;2.10;99.90
18173;DHT22;9211;48.818;9.312;2023-02-13T09:05:41;2.10;99.90
18173;DHT22;9211;48.818;9.312;2023-02-13T09:08:08;2.20;99.90
18173;DHT22;9211;48.818;9.312;2023-02-13T09:10:37;2.30;99.90
18173;DHT22;9211;48.818;9.312;2023-02-13T09:13:05;2.30;99.90
18173;DHT22;9211;48.818;9.312;2023-02-13T09:15:32;2.40;99.90
18173;DHT22;9211;48.818;9.312;2023-02-13T09:17:59;2.50;99.90
18173;DHT22;9211;48.818;9.312;2023-02-13T09:20:26;2.60;99.90
18173;DHT22;9211;48.818;9.312;2023-02-13T09:22:54;2.60;99.90
18173;DHT22;9211;48.818;9.312;2023-02-13T09:25:22;2.70;99.90
18173;DHT22;9211;48.818;9.312;2023-02-13T09:27:49;2.80;99.90
18173;DHT22;9211;48.818;9.312;2023-02-13T09:30:17;2.90;99.90
18173;DHT22;9211;48.818;9.312;2023-02-13T09:32:48;3.00;99.90
18173;DHT22;9211;48.818;9.312;2023-02-13T09:35:16;3.10;99.90
18173;DHT22;9211;48.818;9.312;2023-02-13T09:37:43;3.10;99.90
18173;DHT22;9211;48.818;9.312;2023-02-13T09:40:17;3.20;99.90
18173;DHT22;9211;48.818;9.312;2023-02-13T09:42:45;3.30;99.90
18173;DHT22;9211;48.818;9.312;2023-02-13T09:45:14;3.40;99.90
18173;DHT22;9211;48.818;9.312;2023-02-13T09:47:44;3.40;99.90
18173;DHT22;9211;48.818;9.312;2023-02-13T09:50:13;3.50;99.90
18173;DHT22;9211;48.818;9.312;2023-02-13T09:52:43;3.60;99.90
18173;DHT22;9211;48.818;9.312;2023-02-13T09:55:15;3.60;99.90
18173;DHT22;9211;48.818;9.312;2023-02-13T09:57:46;3.70;99.90
18173;DHT22;9211;48.818;9.312;2023-02-13T10:00:19;3.80;99.90
18173;DHT22;9211;48.818;9.312;2023-02-13T10:03:20;3.80;99.90
18173;DHT22;9211;48.818;9.312;2023-02-13T10:05:57;3.90;99.90
18173;DHT22;9211;48.818;9.312;2023-02-13T10:08:38;4.00;99.90
18173;DHT22;9211;48.818;9.312;2023-02-13T10:11:19;4.00;99.90
18173;DHT22;9211;48.818;9.312;2023-02-13T10:13:57;4.20;99.90
18173;DHT22;9211;48.818;9.312;2023-02-13T10:16:27;4.20;99.90
18173;DHT22;9211;48.818;9.312;2023-02-13T10:19:01;4.30;99.90
18173;DHT22;9211;48.818;9.312;2023-02-13T10:21:32;4.40;99.90
18173;DHT22;9211;48.818;9.312;2023-02-13T10:24:04;4.50;99.90
18173;DHT22;9211;48.818;9.312;2023-02-13T10:26:33;4.60;99.90
18173;DHT22;9211;48.818;9.312;2023-02-13T10:29:16;4.70;99.90
18173;DHT22;9211;48.818;9.312;2023-02-13T10:32:06;4.80;99.90
18173;DHT22;9211;48.818;9.312;2023-02-13T10:34:39;4.80;99.90
18173;DHT22;9211;48.818;9.312;2023-02-13T10:37:12;4.80;99.90
18173;DHT22;9211;48.818;9.312;2023-02-13T10:39:42;4.90;99.90
18173;DHT22;9211;48.818;9.312;2023-02-13T10:42:19;5.00;99.90
18173;DHT22;9211;48.818;9.312;2023-02-13T10:44:57;5.10;99.90
18173;DHT22;9211;48.818;9.312;2023-02-13T10:47:42;5.20;99.90
18173;DHT22;9211;48.818;9.312;2023-02-13T10:50:21;5.20;99.90
18173;DHT22;9211;48.818;9.312;2023-02-13T10:52:54;5.20;99.90
18173;DHT22;9211;48.818;9.312;2023-02-13T10:55:44;5.30;99.90
18173;DHT22;9211;48.818;9.312;2023-02-13T10:58:18;5.40;99.90
18173;DHT22;9211;48.818;9.312;2023-02-13T11:00:50;5.60;99.90
18173;DHT22;9211;48.818;9.312;2023-02-13T11:03:21;5.60;99.90
18173;DHT22;9211;48.818;9.312;2023-02-13T11:05:51;5.70;99.90
18173;DHT22;9211;48.818;9.312;2023-02-13T11:08:21;5.80;99.90
18173;DHT22;9211;48.818;9.312;2023-02-13T11:10:49;5.90;99.90
18173;DHT22;9211;48.818;9.312;2023-02-13T11:13:18;6.00;99.90
18173;DHT22;9211;48.818;9.312;2023-02-13T11:16:00;6.10;99.90
18173;DHT22;9211;48.818;9.312;2023-02-13T11:18:29;6.20;99.90
18173;DHT22;9211;48.818;9.312;2023-02-13T11:21:05;6.40;99.90
18173;DHT22;9211;48.818;9.312;2023-02-13T11:23:37;6.50;99.90
18173;DHT22;9211;48.818;9.312;2023-02-13T11:26:06;6.60;99.90
18173;DHT22;9211;48.818;9.312;2023-02-13T11:28:36;6.70;99.90
18173;DHT22;9211;48.818;9.312;2023-02-13T11:31:21;6.80;99.90
18173;DHT22;9211;48.818;9.312;2023-02-13T11:33:49;7.00;99.90
18173;DHT22;9211;48.818;9.312;2023-02-13T11:36:25;7.00;99.90
18173;DHT22;9211;48.818;9.312;2023-02-13T11:39:00;7.10;99.90
18173;DHT22;9211;48.818;9.312;2023-02-13T11:41:29;7.10;99.90
18173;DHT22;9211;48.818;9.312;2023-02-13T11:43:58;7.10;99.90
18173;DHT22;9211;48.818;9.312;2023-02-13T11:46:30;7.20;99.90
18173;DHT22;9211;48.818;9.312;2023-02-13T11:49:15;7.20;99.90
18173;DHT22;9211;48.818;9.312;2023-02-13T11:51:46;7.30;99.90
18173;DHT22;9211;48.818;9.312;2023-02-13T11:54:28;7.40;99.90
18173;DHT22;9211;48.818;9.312;2023-02-13T11:56:57;7.60;99.90
18173;DHT22;9211;48.818;9.312;2023-02-13T11:59:28;7.70;99.90
18173;DHT22;9211;48.818;9.312;2023-02-13T12:02:10;7.80;99.90
18173;DHT22;9211;48.818;9.312;2023-02-13T12:04:38;7.80;99.90
18173;DHT22;9211;48.818;9.312;2023-02-13T12:07:14;7.80;99.90
18173;DHT22;9211;48.818;9.312;2023-02-13T12:09:43;7.90;99.90
18173;DHT22;9211;48.818;9.312;2023-02-13T12:12:15;8.00;99.90
18173;DHT22;9211;48.818;9.312;2023-02-13T12:14:45;8.10;99.90
18173;DHT22;9211;48.818;9.312;2023-02-13T12:17:14;8.10;99.90
18173;DHT22;9211;48.818;9.312;2023-02-13T12:19:44;8.10;99.90
18173;DHT22;9211;48.818;9.312;2023-02-13T12:22:26;8.10;99.90
18173;DHT22;9211;48.818;9.312;2023-02-13T12:27:57;8.20;99.90
18173;DHT22;9211;48.818;9.312;2023-02-13T12:30:58;8.20;99.90
18173;DHT22;9211;48.818;9.312;2023-02-13T12:36:32;8.20;99.90
18173;DHT22;9211;48.818;9.312;2023-02-13T12:39:15;8.30;99.90
18173;DHT22;9211;48.818;9.312;2023-02-13T12:41:50;8.30;99.90
18173;DHT22;9211;48.818;9.312;2023-02-13T12:44:42;8.40;99.90
18173;DHT22;9211;48.818;9.312;2023-02-13T12:47:16;8.30;99.90
18173;DHT22;9211;48.818;9.312;2023-02-13T12:52:59;8.40;99.90
18173;DHT22;9211;48.818;9.312;2023-02-13T12:55:52;8.30;99.90
18173;DHT22;9211;48.818;9.312;2023-02-13T13:01:55;8.40;99.90
18173;DHT22;9211;48.818;9.312;2023-02-13T13:04:33;8.30;99.90
18173;DHT22;9211;48.818;9.312;2023-02-13T13:07:25;8.30;99.90
18173;DHT22;9211;48.818;9.312;2023-02-13T13:10:04;8.40;99.90
18173;DHT22;9211;48.818;9.312;2023-02-13T13:12:43;8.40;99.90
18173;DHT22;9211;48.818;9.312;2023-02-13T13:15:19;8.40;99.90
18173;DHT22;9211;48.818;9.312;2023-02-13T13:17:59;8.40;99.90
18173;DHT22;9211;48.818;9.312;2023-02-13T13:20:46;8.40;99.90
18173;DHT22;9211;48.818;9.312;2023-02-13T13:23:19;8.40;99.90
18173;DHT22;9211;48.818;9.312;2023-02-13T13:25:53;8.40;99.90
18173;DHT22;9211;48.818;9.312;2023-02-13T13:28:26;8.50;99.90
18173;DHT22;9211;48.818;9.312;2023-02-13T13:30:56;8.60;99.90
18173;DHT22;9211;48.818;9.312;2023-02-13T13:33:25;8.60;99.90
18173;DHT22;9211;48.818;9.312;2023-02-13T13:35:57;8.60;99.90
18173;DHT22;9211;48.818;9.312;2023-02-13T13:38:39;8.60;99.90
18173;DHT22;9211;48.818;9.312;2023-02-13T13:41:14;8.60;99.90
18173;DHT22;9211;48.818;9.312;2023-02-13T13:43:56;8.60;99.90
18173;DHT22;9211;48.818;9.312;2023-02-13T13:46:30;8.60;99.90
18173;DHT22;9211;48.818;9.312;2023-02-13T13:49:09;8.70;99.90
18173;DHT22;9211;48.818;9.312;2023-02-13T13:51:38;8.80;99.90
18173;DHT22;9211;48.818;9.312;2023-02-13T13:54:32;8.90;99.90
18173;DHT22;9211;48.818;9.312;2023-02-13T13:57:05;9.00;99.90
18173;DHT22;9211;48.818;9.312;2023-02-13T14:02:42;9.10;99.90
18173;DHT22;9211;48.818;9.312;2023-02-13T14:05:19;9.20;99.90
18173;DHT22;9211;48.818;9.312;2023-02-13T14:07:49;9.20;99.90
18173;DHT22;9211;48.818;9.312;2023-02-13T14:13:36;9.50;99.90
18173;DHT22;9211;48.818;9.312;2023-02-13T14:16:05;9.70;99.90
18173;DHT22;9211;48.818;9.312;2023-02-13T14:18:36;9.80;99.90
18173;DHT22;9211;48.818;9.312;2023-02-13T14:21:05;9.80;99.90
18173;DHT22;9211;48.818;9.312;2023-02-13T14:23:43;10.00;99.90
18173;DHT22;9211;48.818;9.312;2023-02-13T14:26:31;10.10;99.90
18173;DHT22;9211;48.818;9.312;2023-02-13T14:29:16;10.20;99.90
18173;DHT22;9211;48.818;9.312;2023-02-13T14:31:57;10.30;99.90
18173;DHT22;9211;48.818;9.312;2023-02-13T14:34:29;10.40;99.90
18173;DHT22;9211;48.818;9.312;2023-02-13T14:37:27;10.40;99.90
18173;DHT22;9211;48.818;9.312;2023-02-13T14:43:15;10.50;99.90
18173;DHT22;9211;48.818;9.312;2023-02-13T14:45:48;10.50;99.90
18173;DHT22;9211;48.818;9.312;2023-02-13T14:48:17;10.50;99.90
18173;DHT22;9211;48.818;9.312;2023-02-13T14:50:49;10.60;99.90
18173;DHT22;9211;48.818;9.312;2023-02-13T14:53:25;10.60;99.90
18173;DHT22;9211;48.818;9.312;2023-02-13T14:55:56;10.60;99.90
18173;DHT22;9211;48.818;9.312;2023-02-13T14:58:27;10.60;99.90
18173;DHT22;9211;48.818;9.312;2023-02-13T15:00:59;10.60;99.90
18173;DHT22;9211;48.818;9.312;2023-02-13T15:03:33;10.60;99.90
18173;DHT22;9211;48.818;9.312;2023-02-13T15:06:06;10.60;99.90
18173;DHT22;9211;48.818;9.312;2023-02-13T15:08:42;10.50;99.90
18173;DHT22;9211;48.818;9.312;2023-02-13T15:11:12;10.50;99.90
18173;DHT22;9211;48.818;9.312;2023-02-13T15:14:24;10.40;99.90
18173;DHT22;9211;48.818;9.312;2023-02-13T15:17:00;10.40;99.90
18173;DHT22;9211;48.818;9.312;2023-02-13T15:19:28;10.40;99.90
18173;DHT22;9211;48.818;9.312;2023-02-13T15:21:58;10.30;99.90
18173;DHT22;9211;48.818;9.312;2023-02-13T15:24:31;10.30;99.90
18173;DHT22;9211;48.818;9.312;2023-02-13T15:27:02;10.30;99.90
18173;DHT22;9211;48.818;9.312;2023-02-13T15:29:30;10.20;99.90
18173;DHT22;9211;48.818;9.312;2023-02-13T15:31:57;10.20;99.90
18173;DHT22;9211;48.818;9.312;2023-02-13T15:34:27;10.20;99.90
18173;DHT22;9211;48.818;9.312;2023-02-13T15:36:56;10.10;99.90
18173;DHT22;9211;48.818;9.312;2023-02-13T15:39:25;10.10;99.90
18173;DHT22;9211;48.818;9.312;2023-02-13T15:41:55;10.10;99.90
18173;DHT22;9211;48.818;9.312;2023-02-13T15:44:25;10.00;99.90
18173;DHT22;9211;48.818;9.312;2023-02-13T15:46:56;10.00;99.90
18173;DHT22;9211;48.818;9.312;2023-02-13T15:49:25;10.00;99.90
18173;DHT22;9211;48.818;9.312;2023-02-13T15:52:04;9.90;99.90
18173;DHT22;9211;48.818;9.312;2023-02-13T15:54:33;9.90;99.90
18173;DHT22;9211;48.818;9.312;2023-02-13T15:57:03;9.80;99.90
18173;DHT22;9211;48.818;9.312;2023-02-13T15:59:33;9.80;99.90
18173;DHT22;9211;48.818;9.312;2023-02-13T16:02:03;9.70;99.90
18173;DHT22;9211;48.818;9.312;2023-02-13T16:04:31;9.60;99.90
18173;DHT22;9211;48.818;9.312;2023-02-13T16:06:58;9.60;99.90
18173;DHT22;9211;48.818;9.312;2023-02-13T16:09:30;9.40;99.90
18173;DHT22;9211;48.818;9.312;2023-02-13T16:12:02;9.30;99.90
18173;DHT22;9211;48.818;9.312;2023-02-13T16:14:31;9.30;99.90
18173;DHT22;9211;48.818;9.312;2023-02-13T16:17:01;9.20;99.90
18173;DHT22;9211;48.818;9.312;2023-02-13T16:19:38;9.10;99.90
18173;DHT22;9211;48.818;9.312;2023-02-13T16:22:22;8.90;99.90
18173;DHT22;9211;48.818;9.312;2023-02-13T16:24:54;8.80;99.90
18173;DHT22;9211;48.818;9.312;2023-02-13T16:27:26;8.70;99.90
18173;DHT22;9211;48.818;9.312;2023-02-13T16:29:55;8.60;99.90
18173;DHT22;9211;48.818;9.312;2023-02-13T16:32:27;8.40;99.90
18173;DHT22;9211;48.818;9.312;2023-02-13T16:34:55;8.40;99.90
18173;DHT22;9211;48.818;9.312;2023-02-13T16:37:28;8.20;99.90
18173;DHT22;9211;48.818;9.312;2023-02-13T16:40:23;8.10;99.90
18173;DHT22;9211;48.818;9.312;2023-02-13T16:46:19;7.80;99.90
18173;DHT22;9211;48.818;9.312;2023-02-13T16:48:57;7.70;99.90
18173;DHT22;9211;48.818;9.312;2023-02-13T16:51:31;7.60;99.90
18173;DHT22;9211;48.818;9.312;2023-02-13T16:53:59;7.50;99.90
18173;DHT22;9211;48.818;9.312;2023-02-13T16:56:36;7.30;99.90
18173;DHT22;9211;48.818;9.312;2023-02-13T16:59:09;7.20;99.90